Time;durP1;ratioP1;P1;durP2;ratioP2;P2;SDS_P1;SDS_P2;PMS_P1;PMS_P2;Temp;Humidity;BMP_temperature;BMP_pressure;BME280_temperature;BME280_humidity;BME280_pressure;Samples;Min_cycle;Max_cycle;Signal;HPM_P1;HPM_P2
2022/04/18 00:05:06;;;;;;;;;1.75;1.25;;;;;13.52;63.58;101426.69;6259212;22;45673;-88
2022/04/18 00:08:09;;;;;;;;;1.60;1.60;;;;;13.50;62.27;101425.09;6237883;22;45406;-87
2022/04/18 00:14:09;;;;;;;;;2.25;2.25;;;;;13.44;64.01;101409.47;6270053;22;44882;-88
2022/04/18 00:17:13;;;;;;;;;3.25;2.25;;;;;13.42;64.11;101401.59;6258448;22;46664;-88
2022/04/18 00:19:50;;;;;;;;;1.80;1.80;;;;;13.43;63.91;101405.97;6279710;22;45163;-86
2022/04/18 00:22:20;;;;;;;;;1.00;1.00;;;;;13.41;64.25;101394.53;6253512;22;45353;-88
2022/04/18 00:24:59;;;;;;;;;1.00;1.00;;;;;13.40;63.61;101398.19;6258331;22;44725;-88
2022/04/18 00:27:37;;;;;;;;;1.00;1.00;;;;;13.37;63.22;101398.38;6266877;22;44960;-87
2022/04/18 00:30:08;;;;;;;;;4.60;1.80;;;;;13.37;63.33;101401.06;6303082;22;44645;-88
2022/04/18 00:33:13;;;;;;;;;1.60;1.60;;;;;13.36;62.57;101399.34;6246438;22;44703;-86
2022/04/18 00:35:42;;;;;;;;;2.00;2.00;;;;;13.33;65.17;101371.03;6263149;22;45628;-85
2022/04/18 00:38:15;;;;;;;;;1.75;1.75;;;;;13.34;58.93;101383.44;6284725;22;46652;-85
2022/04/18 00:41:39;;;;;;;;;;;;;;;;;;;;;
2022/04/18 00:44:46;;;;;;;;;0.80;0.80;;;;;13.38;59.72;101387.59;6029904;23;68496;-87
2022/04/18 00:47:53;;;;;;;;;2.00;0.75;;;;;13.37;59.39;101377.03;6037909;23;44829;-86
2022/04/18 00:54:02;;;;;;;;;1.80;1.80;;;;;13.32;59.38;101382.69;6056502;23;44666;-89
2022/04/18 00:56:31;;;;;;;;;4.00;1.00;;;;;13.30;58.56;101373.09;6053304;23;44812;-87
2022/04/18 00:59:03;;;;;;;;;1.75;1.75;;;;;13.25;60.85;101367.22;6054075;23;44731;-87
2022/04/18 01:01:58;;;;;;;;;1.50;1.50;;;;;13.21;61.44;101363.84;6047043;23;45061;-86
2022/04/18 01:08:33;;;;;;;;;0.80;0.60;;;;;13.10;63.30;101369.91;6042056;23;44831;-87
2022/04/18 01:11:14;;;;;;;;;3.50;2.00;;;;;13.02;62.81;101372.25;6048186;23;45350;-87
2022/04/18 01:14:16;;;;;;;;;;;;;;;;;;;;;
2022/04/18 01:17:15;;;;;;;;;2.20;2.20;;;;;12.92;64.57;101373.81;5995892;23;72982;-87
2022/04/18 01:23:28;;;;;;;;;2.75;1.50;;;;;12.80;64.38;101364.81;6040036;23;44651;-88
2022/04/18 01:46:52;;;;;;;;;1.20;1.20;;;;;12.30;69.31;101352.13;5960118;23;44809;-86
2022/04/18 01:49:30;;;;;;;;;2.75;2.75;;;;;12.24;71.26;101345.38;5952933;23;45374;-85
2022/04/18 01:52:36;;;;;;;;;;;;;;;;;;;;;
2022/04/18 01:58:45;;;;;;;;;3.00;3.00;;;;;12.09;72.23;101336.56;6011096;23;44823;-88
2022/04/18 02:01:35;;;;;;;;;2.00;2.00;;;;;12.05;72.42;101352.84;5965813;23;45490;-87
2022/04/18 02:04:46;;;;;;;;;;;;;;;;;;;;;
2022/04/18 02:07:22;;;;;;;;;2.60;2.60;;;;;11.90;72.88;101329.84;5955481;23;45292;-87
2022/04/18 02:09:48;;;;;;;;;2.00;2.00;;;;;11.83;72.71;101332.00;5966696;23;45383;-86
2022/04/18 02:12:23;;;;;;;;;3.00;3.00;;;;;11.79;73.22;101333.97;5982683;23;44774;-87
2022/04/18 02:15:18;;;;;;;;;;;;;;;;;;;;;
2022/04/18 02:21:21;;;;;;;;;2.00;2.00;;;;;11.65;74.20;101333.97;6140145;23;44902;-87
2022/04/18 02:24:01;;;;;;;;;2.25;2.00;;;;;11.57;74.39;101331.81;6115821;23;44769;-86
2022/04/18 02:26:38;;;;;;;;;3.00;3.00;;;;;11.54;74.30;101333.78;6125114;23;45024;-86
2022/04/18 02:29:09;;;;;;;;;2.50;2.50;;;;;11.48;75.78;101320.88;6099962;23;44749;-85
2022/04/18 02:34:26;;;;;;;;;2.25;2.25;;;;;11.41;77.07;101327.50;6134414;23;45403;-86
2022/04/18 02:36:54;;;;;;;;;1.75;1.75;;;;;11.41;77.75;101323.06;6155186;23;45174;-86
2022/04/18 02:39:23;;;;;;;;;2.00;2.00;;;;;11.43;78.64;101325.63;6192072;22;45240;-85
2022/04/18 02:41:56;;;;;;;;;3.00;2.75;;;;;11.40;80.51;101318.66;6209598;22;44707;-85
2022/04/18 02:44:22;;;;;;;;;30.00;25.33;;;;;11.41;82.26;101314.19;6235732;22;44806;-85
2022/04/18 02:46:50;;;;;;;;;2.00;2.00;;;;;11.36;83.23;101306.50;6225928;22;46619;-87
2022/04/18 02:49:16;;;;;;;;;5.00;4.00;;;;;11.32;81.08;101310.31;6200316;22;44680;-88
2022/04/18 02:51:45;;;;;;;;;3.75;3.75;;;;;11.30;82.19;101312.19;6196639;22;45203;-85
2022/04/18 02:54:10;;;;;;;;;2.25;2.25;;;;;11.23;81.99;101297.56;6220559;22;44777;-85
2022/04/18 02:56:36;;;;;;;;;2.00;2.00;;;;;11.21;84.13;101307.44;6216435;22;45458;-84
2022/04/18 02:59:12;;;;;;;;;3.25;2.00;;;;;11.14;84.25;101298.13;6226829;22;44760;-86
2022/04/18 03:01:38;;;;;;;;;2.00;2.00;;;;;11.09;83.42;101308.19;6248986;22;44817;-84
2022/04/18 03:04:09;;;;;;;;;3.00;3.00;;;;;11.03;82.88;101302.28;6220720;22;44928;-86
2022/04/18 03:07:00;;;;;;;;;;;;;;;;;;;;;
2022/04/18 03:10:04;;;;;;;;;2.00;2.00;;;;;10.98;81.93;101317.66;6211064;22;72170;-84
2022/04/18 03:15:41;;;;;;;;;;;;;;;;;;;;;
2022/04/18 03:18:12;;;;;;;;;4.25;3.00;;;;;10.97;76.57;101317.72;6265036;22;74560;-85
2022/04/18 03:21:35;;;;;;;;;4.50;4.25;;;;;11.02;77.27;101302.38;6238165;22;44583;-86
2022/04/18 03:24:35;;;;;;;;;3.75;3.00;;;;;11.00;73.80;101301.63;6247857;22;44841;-84
2022/04/18 03:27:52;;;;;;;;;;;;;;;;;;;;;
2022/04/18 03:30:27;;;;;;;;;3.00;3.00;;;;;11.00;73.18;101306.94;6235442;22;75493;-85
2022/04/18 03:33:12;;;;;;;;;3.50;3.50;;;;;11.03;78.58;101298.78;6249493;22;45139;-86
2022/04/18 03:41:43;;;;;;;;;5.00;2.25;;;;;10.95;70.98;101307.19;6246665;22;45291;-85
2022/04/18 03:44:11;;;;;;;;;5.00;4.00;;;;;10.92;82.87;101302.06;6249471;22;44765;-84
2022/04/18 03:46:37;;;;;;;;;6.25;5.75;;;;;10.92;78.41;101301.19;6251162;22;44740;-84
2022/04/18 03:49:11;;;;;;;;;9.00;6.75;;;;;10.90;81.19;101303.09;6229253;22;44865;-86
2022/04/18 03:51:36;;;;;;;;;3.00;3.00;;;;;10.86;77.80;101307.75;6215641;22;45411;-84
2022/04/18 03:54:02;;;;;;;;;5.00;5.00;;;;;10.81;82.11;101293.88;6260668;22;44739;-84
2022/04/18 03:56:44;;;;;;;;;5.25;4.00;;;;;10.77;83.67;101295.00;6252882;22;44718;-85
2022/04/18 04:02:39;;;;;;;;;4.00;2.75;;;;;10.67;84.96;101299.13;6099824;23;45712;-85
2022/04/18 04:05:33;;;;;;;;;4.25;4.25;;;;;10.60;85.00;101295.13;6094989;23;44749;-85
2022/04/18 04:08:24;;;;;;;;;;;;;;;;;;;;;
2022/04/18 04:10:50;;;;;;;;;3.50;3.50;;;;;10.50;87.45;101290.34;6093317;23;69235;-84
2022/04/18 04:13:29;;;;;;;;;4.75;3.00;;;;;10.45;85.93;101295.06;6100556;23;46513;-85
2022/04/18 04:16:30;;;;;;;;;;;;;;;;;;;;;
2022/04/18 04:19:03;;;;;;;;;3.25;3.25;;;;;10.40;89.21;101291.84;6093597;23;68977;-85
2022/04/18 04:21:44;;;;;;;;;4.00;3.75;;;;;10.35;90.64;101293.00;6096065;23;45226;-84
2022/04/18 04:24:44;;;;;;;;;6.50;5.25;;;;;10.29;88.33;101287.09;6069040;23;45345;-84
2022/04/18 04:27:10;;;;;;;;;7.25;3.00;;;;;10.28;86.32;101293.38;6094320;23;44817;-85
2022/04/18 04:29:36;;;;;;;;;2.50;2.50;;;;;10.25;89.14;101285.59;6093379;23;45205;-84
2022/04/18 04:32:31;;;;;;;;;4.25;4.25;;;;;10.26;87.31;101289.97;6092020;23;45352;-86
2022/04/18 04:35:14;;;;;;;;;3.00;3.00;;;;;10.26;88.13;101289.97;6092077;23;44970;-86
2022/04/18 04:37:55;;;;;;;;;4.50;4.00;;;;;10.25;90.34;101290.03;6094771;23;45410;-85
2022/04/18 04:40:21;;;;;;;;;3.00;3.00;;;;;10.20;93.10;101292.94;6212492;22;45195;-85
2022/04/18 04:42:46;;;;;;;;;2.00;2.00;;;;;10.14;91.75;101287.09;6256965;22;44785;-85
2022/04/18 04:45:22;;;;;;;;;3.25;3.25;;;;;10.11;90.79;101290.78;6242421;22;44994;-85
2022/04/18 04:47:57;;;;;;;;;0.75;0.00;;;;;10.08;91.94;101300.72;6222628;22;45172;-86
2022/04/18 04:50:23;;;;;;;;;3.25;3.25;;;;;10.02;91.69;101292.16;6226317;22;45201;-86
2022/04/18 04:53:03;;;;;;;;;3.50;3.50;;;;;10.01;93.32;101300.22;6229654;22;45334;-85
2022/04/18 04:55:28;;;;;;;;;3.50;3.50;;;;;9.96;93.55;101299.59;6221776;22;45197;-84
2022/04/18 04:58:14;;;;;;;;;2.00;2.00;;;;;9.91;94.25;101293.69;6247721;22;44745;-85
2022/04/18 05:00:43;;;;;;;;;5.00;3.25;;;;;9.88;95.99;101291.22;6222396;22;45267;-84
2022/04/18 05:07:15;;;;;;;;;3.50;3.00;;;;;9.90;94.20;101299.94;6248713;22;44910;-86
2022/04/18 05:09:41;;;;;;;;;2.50;2.50;;;;;9.95;93.42;101293.44;6128762;23;44772;-85
2022/04/18 05:12:11;;;;;;;;;3.00;2.50;;;;;9.97;93.59;101294.22;6128289;23;44853;-86
2022/04/18 05:14:42;;;;;;;;;3.25;3.25;;;;;9.98;95.09;101295.06;6103552;23;44894;-85
2022/04/18 05:17:07;;;;;;;;;3.00;3.00;;;;;9.95;95.78;101297.88;6103356;23;46740;-83
2022/04/18 05:19:33;;;;;;;;;3.75;3.75;;;;;9.92;96.00;101298.91;6104284;23;45217;-85
2022/04/18 05:22:01;;;;;;;;;3.50;2.00;;;;;9.92;93.85;101304.22;6128905;23;45429;-83
2022/04/18 05:24:30;;;;;;;;;4.00;4.00;;;;;9.92;93.92;101298.91;6127785;23;44990;-85
2022/04/18 05:26:56;;;;;;;;;3.00;3.00;;;;;9.94;94.28;101306.78;6097556;23;45182;-86
2022/04/18 05:29:28;;;;;;;;;2.75;2.75;;;;;9.94;94.98;101305.00;6123505;23;45456;-87
2022/04/18 05:32:10;;;;;;;;;3.75;3.75;;;;;9.96;96.18;101305.78;6100415;23;44654;-85
2022/04/18 05:34:40;;;;;;;;;5.00;3.00;;;;;10.01;95.23;101309.03;6137608;23;44850;-85
2022/04/18 05:37:07;;;;;;;;;2.50;2.50;;;;;10.12;95.07;101296.97;6111729;23;46149;-86
2022/04/18 05:39:36;;;;;;;;;5.50;4.00;;;;;10.34;90.77;101313.41;6128612;23;45271;-85
2022/04/18 05:42:06;;;;;;;;;2.75;2.75;;;;;10.51;90.58;101310.66;6127757;23;44823;-86
2022/04/18 05:44:45;;;;;;;;;6.50;5.00;;;;;10.82;88.87;101316.84;6159782;22;44932;-86
2022/04/18 05:47:15;;;;;;;;;6.25;6.25;;;;;11.03;86.56;101317.38;6266361;22;46378;-86
2022/04/18 05:49:47;;;;;;;;;4.75;4.75;;;;;11.29;87.00;101323.78;6233774;22;45492;-86
2022/04/18 05:52:22;;;;;;;;;3.75;3.75;;;;;11.63;84.07;101324.38;6255670;22;45146;-86
2022/04/18 05:54:48;;;;;;;;;3.25;2.25;;;;;11.89;83.44;101328.97;6225296;22;44837;-86
2022/04/18 05:57:21;;;;;;;;;2.50;2.50;;;;;12.13;82.59;101331.88;6221441;22;45054;-84
2022/04/18 05:59:47;;;;;;;;;4.20;3.00;;;;;12.41;80.59;101333.63;6249043;22;45401;-84
2022/04/18 06:02:16;;;;;;;;;3.00;3.00;;;;;12.69;80.05;101331.81;6206651;22;45241;-86
2022/04/18 06:04:44;;;;;;;;;4.25;3.00;;;;;12.92;77.52;101340.97;6218637;22;44781;-86
2022/04/18 06:07:10;;;;;;;;;3.00;3.00;;;;;13.07;77.95;101331.91;6246114;22;46959;-86
2022/04/18 06:09:37;;;;;;;;;2.00;2.00;;;;;13.29;76.18;101329.50;6255835;22;44719;-87
2022/04/18 06:12:02;;;;;;;;;5.00;3.00;;;;;13.49;75.34;101333.50;6257328;22;44613;-85
2022/04/18 06:14:28;;;;;;;;;2.75;2.75;;;;;13.71;75.06;101345.31;6253428;22;44673;-86
2022/04/18 06:16:56;;;;;;;;;4.50;3.25;;;;;13.89;72.76;101349.38;6250547;22;45315;-85
2022/04/18 06:19:30;;;;;;;;;2.20;2.20;;;;;13.99;71.29;101347.75;6230842;22;44762;-87
2022/04/18 06:22:23;;;;;;;;;4.00;4.00;;;;;14.10;71.46;101346.97;6257202;22;44845;-86
2022/04/18 06:24:55;;;;;;;;;3.60;3.60;;;;;14.25;69.97;101343.19;6241694;22;44785;-84
2022/04/18 06:27:26;;;;;;;;;4.00;3.20;;;;;14.35;68.32;101346.03;6272465;22;45204;-86
2022/04/18 06:33:46;;;;;;;;;3.40;3.40;;;;;14.72;68.06;101346.91;6159223;23;45360;-84
2022/04/18 06:36:23;;;;;;;;;3.00;3.00;;;;;14.83;66.68;101349.63;6191955;23;45377;-86
2022/04/18 06:39:36;;;;;;;;;3.60;3.60;;;;;14.99;67.03;101351.13;6162126;23;46406;-85
2022/04/18 06:45:57;;;;;;;;;7.00;3.80;;;;;15.32;63.29;101353.06;6106939;23;45003;-85
2022/04/18 06:59:12;;;;;;;;;3.00;3.00;;;;;15.55;61.98;101349.44;6220085;22;44818;-85
2022/04/18 07:09:05;;;;;;;;;1.00;0.00;;;;;15.48;63.03;101348.25;6231765;22;44656;-85
2022/04/18 07:12:01;;;;;;;;;5.00;5.00;;;;;15.32;63.56;101345.88;6223864;22;44906;-85
2022/04/18 07:15:05;;;;;;;;;4.60;4.60;;;;;15.35;63.66;101345.66;6245421;22;45085;-86
2022/04/18 07:17:50;;;;;;;;;4.00;4.00;;;;;15.38;64.01;101341.91;6225535;22;45270;-86
2022/04/18 07:20:39;;;;;;;;;;;;;;;;;;;;;
2022/04/18 07:30:29;;;;;;;;;;;;;;;;;;;;;
2022/04/18 07:33:10;;;;;;;;;6.00;4.00;;;;;15.45;66.65;101342.25;6036082;23;68357;-87
2022/04/18 07:35:41;;;;;;;;;3.00;3.00;;;;;15.55;66.09;101341.41;6043032;23;44978;-85
2022/04/18 07:46:01;;;;;;;;;;;;;;;;;;;;;
2022/04/18 07:48:53;;;;;;;;;6.00;4.50;;;;;15.74;62.00;101338.19;5906203;24;69272;-86
2022/04/18 07:52:13;;;;;;;;;;;;;;;;;;;;;
2022/04/18 07:55:24;;;;;;;;;4.40;4.40;;;;;15.47;65.72;101346.50;5816159;24;44830;-88
2022/04/18 07:58:48;;;;;;;;;2.80;2.80;;;;;15.67;67.82;101342.34;5765384;24;45402;-87
2022/04/18 08:05:01;;;;;;;;;4.00;4.00;;;;;16.12;62.61;101342.31;5790773;24;45400;-88
2022/04/18 08:08:15;;;;;;;;;8.40;5.20;;;;;16.03;62.20;101343.91;5769629;24;44839;-87
2022/04/18 08:18:41;;;;;;;;;;;;;;;;;;;;;
2022/04/18 08:28:27;;;;;;;;;5.00;4.00;;;;;15.87;59.46;101338.06;5740986;24;45133;-86
2022/04/18 08:31:08;;;;;;;;;4.25;2.00;;;;;15.93;59.88;101340.25;5661897;25;45136;-86
2022/04/18 08:34:20;;;;;;;;;;;;;;;;;;;;;
2022/04/18 08:37:37;;;;;;;;;6.40;6.40;;;;;16.24;54.50;101332.41;5715390;24;69761;-86
2022/04/18 08:40:24;;;;;;;;;6.25;5.50;;;;;16.31;54.90;101336.31;5718582;25;44892;-87
2022/04/18 08:43:30;;;;;;;;;5.25;4.50;;;;;16.54;55.32;101340.66;5716800;24;46622;-87
2022/04/18 09:32:02;;;;;;;;;10.80;10.80;;;;;17.66;42.86;101334.72;5835988;24;44683;-87
2022/04/18 09:37:47;;;;;;;;;9.20;8.20;;;;;17.82;43.30;101330.72;5881459;24;45156;-86
2022/04/18 09:41:06;;;;;;;;;13.60;10.60;;;;;17.91;43.13;101321.84;5883113;24;44746;-86
2022/04/18 10:19:57;;;;;;;;;13.60;13.20;;;;;18.90;38.50;101307.41;6263195;22;44734;-86
2022/04/18 10:23:04;;;;;;;;;10.25;8.50;;;;;18.80;39.56;101313.81;6238474;22;44842;-85
2022/04/18 10:26:42;;;;;;;;;12.20;8.60;;;;;18.77;40.24;101312.25;6264501;22;45286;-85
2022/04/18 10:29:40;;;;;;;;;8.60;8.60;;;;;18.83;39.44;101310.84;6257376;22;44848;-86
2022/04/18 10:50:07;;;;;;;;;9.75;7.25;;;;;19.30;36.67;101292.06;6041338;23;44923;-89
2022/04/18 11:03:18;;;;;;;;;10.00;10.00;;;;;19.62;36.00;101270.97;6041385;23;45413;-88
2022/04/18 11:10:22;;;;;;;;;;;;;;;;;;;;;
2022/04/18 11:17:25;;;;;;;;;;;;;;;;;;;;;
2022/04/18 11:20:13;;;;;;;;;7.40;7.40;;;;;19.77;33.55;101280.31;5788723;24;45541;-87
2022/04/18 11:40:38;;;;;;;;;5.60;5.60;;;;;20.52;30.60;101263.94;5788789;24;44754;-88
2022/04/18 11:47:37;;;;;;;;;5.40;4.40;;;;;21.14;31.60;101253.13;5957608;23;45470;-87
2022/04/18 11:53:37;;;;;;;;;9.60;7.60;;;;;21.17;31.34;101252.78;6038798;23;45236;-88
2022/04/18 11:56:06;;;;;;;;;4.20;4.20;;;;;21.02;28.84;101250.66;5990994;23;44832;-88
2022/04/18 11:58:37;;;;;;;;;5.60;4.60;;;;;20.85;27.89;101253.44;6042646;23;45359;-88
2022/04/18 12:08:19;;;;;;;;;;;;;;;;;;;;;
2022/04/18 12:11:21;;;;;;;;;3.80;3.80;;;;;20.99;29.72;101240.19;6101662;23;74197;-87
2022/04/18 12:13:59;;;;;;;;;4.00;4.00;;;;;21.08;28.40;101245.63;6055360;23;44804;-86
2022/04/18 12:20:27;;;;;;;;;5.00;5.00;;;;;21.17;28.07;101237.44;6049696;23;44902;-87
2022/04/18 12:23:24;;;;;;;;;14.60;9.20;;;;;21.21;28.62;101235.25;6040725;23;46658;-88
2022/04/18 12:27:04;;;;;;;;;17.00;11.80;;;;;21.24;28.71;101243.91;6041829;23;44731;-89
2022/04/18 12:29:54;;;;;;;;;7.20;6.20;;;;;21.42;28.14;101237.59;6063175;23;44883;-89
2022/04/18 12:33:00;;;;;;;;;;;;;;;;;;;;;
2022/04/18 12:39:44;;;;;;;;;6.40;6.40;;;;;22.17;27.51;101227.75;5906530;24;44869;-87
2022/04/18 12:43:01;;;;;;;;;4.00;4.00;;;;;22.31;28.58;101229.81;5906841;24;44775;-88
2022/04/18 12:49:55;;;;;;;;;2.00;2.00;;;;;22.01;25.29;101233.97;5927016;23;45832;-88
2022/04/18 13:12:56;;;;;;;;;;;;;;;;;;;;;
2022/04/18 13:15:58;;;;;;;;;1.40;1.20;;;;;21.63;26.35;101202.91;6284654;22;68111;-87
2022/04/18 13:19:25;;;;;;;;;2.40;2.40;;;;;22.03;26.48;101206.72;6258454;22;45267;-87
2022/04/18 13:22:38;;;;;;;;;4.00;4.00;;;;;22.36;25.10;101199.53;6111066;23;45196;-87
2022/04/18 13:25:59;;;;;;;;;4.80;4.00;;;;;22.41;25.50;101196.31;6134515;23;44734;-86
2022/04/18 13:28:47;;;;;;;;;7.20;5.40;;;;;22.60;24.94;101193.28;6020594;23;44777;-87
2022/04/18 13:31:17;;;;;;;;;3.40;3.40;;;;;22.43;25.70;101189.72;6009019;23;44878;-87
2022/04/18 13:34:33;;;;;;;;;9.20;7.20;;;;;22.49;27.12;101180.94;6021186;23;45062;-86
2022/04/18 13:40:21;;;;;;;;;4.80;2.60;;;;;22.87;25.98;101175.81;5986863;23;45700;-86
2022/04/18 13:42:53;;;;;;;;;6.00;4.80;;;;;22.77;24.72;101185.97;5941953;23;45322;-87
2022/04/18 13:45:46;;;;;;;;;3.60;3.60;;;;;22.75;25.47;101177.19;5992181;23;44978;-87
2022/04/18 13:48:38;;;;;;;;;5.00;3.00;;;;;22.74;25.97;101159.25;5998640;23;45364;-88
2022/04/18 13:52:13;;;;;;;;;4.00;4.00;;;;;22.78;25.15;101166.84;5935148;24;45367;-88
2022/04/18 13:55:47;;;;;;;;;;;;;;;;;;;;;
2022/04/18 14:02:26;;;;;;;;;;;;;;;;;;;;;
2022/04/18 14:05:36;;;;;;;;;4.80;4.00;;;;;23.74;23.68;101160.47;5815373;24;68120;-88
2022/04/18 14:11:34;;;;;;;;;4.80;3.00;;;;;23.54;23.37;101153.75;5847581;24;44895;-87
2022/04/18 14:24:12;;;;;;;;;5.40;3.60;;;;;24.55;21.97;101136.44;5876725;24;45015;-87
2022/04/18 14:30:00;;;;;;;;;2.20;2.20;;;;;24.51;20.15;101141.41;5925775;24;45239;-86
2022/04/18 14:32:40;;;;;;;;;2.40;2.40;;;;;24.65;21.49;101134.31;5955756;23;44736;-87
2022/04/18 14:35:23;;;;;;;;;5.00;4.00;;;;;24.90;19.85;101136.78;5961407;23;46686;-87
2022/04/18 14:38:26;;;;;;;;;3.80;2.40;;;;;25.05;23.87;101127.63;5944284;23;44675;-86
2022/04/18 14:41:04;;;;;;;;;2.00;2.00;;;;;25.07;20.88;101128.28;6006885;23;44750;-87
2022/04/18 14:44:01;;;;;;;;;;;;;;;;;;;;;
2022/04/18 14:49:10;;;;;;;;;2.60;2.60;;;;;25.66;24.44;101102.84;6227790;22;44695;-86
2022/04/18 14:52:13;;;;;;;;;3.80;3.00;;;;;25.11;20.91;101126.88;6230859;22;44650;-87
2022/04/18 14:55:34;;;;;;;;;3.00;2.00;;;;;24.78;21.25;101120.94;6226751;22;44805;-87
2022/04/18 14:58:35;;;;;;;;;2.40;2.40;;;;;24.76;21.89;101114.00;6124497;23;45003;-87
2022/04/18 15:01:10;;;;;;;;;3.40;3.40;;;;;24.61;21.88;101113.97;6080682;23;45324;-87
2022/04/18 15:03:52;;;;;;;;;2.60;2.60;;;;;24.35;21.28;101112.50;6101605;23;44843;-89
2022/04/18 15:06:31;;;;;;;;;2.80;2.80;;;;;24.32;20.43;101112.00;6127576;23;45206;-87
2022/04/18 15:09:06;;;;;;;;;3.00;3.00;;;;;24.33;21.97;101113.72;6094278;23;46793;-87
2022/04/18 15:11:54;;;;;;;;;3.80;2.00;;;;;24.46;20.68;101110.41;6101648;23;44788;-87
2022/04/18 15:14:39;;;;;;;;;2.80;2.20;;;;;24.63;21.17;101111.94;6133769;23;44625;-89
2022/04/18 15:17:08;;;;;;;;;4.00;4.00;;;;;24.67;20.47;101106.97;6084356;23;44836;-88
2022/04/18 15:19:49;;;;;;;;;4.20;4.20;;;;;24.54;21.44;101110.31;6061792;23;45025;-90
2022/04/18 15:22:29;;;;;;;;;2.60;2.60;;;;;24.54;20.98;101099.47;6079862;23;44621;-88
2022/04/18 15:25:10;;;;;;;;;2.60;2.60;;;;;24.50;21.79;101103.56;6075011;23;44716;-89
2022/04/18 15:27:59;;;;;;;;;1.80;1.80;;;;;24.44;20.19;101107.88;6079371;23;44698;-89
2022/04/18 15:33:21;;;;;;;;;3.00;3.00;;;;;24.81;20.78;101108.88;6054581;23;44637;-90
2022/04/18 15:35:53;;;;;;;;;3.00;3.00;;;;;24.92;20.87;101105.66;6109585;23;44848;-90
2022/04/18 15:38:19;;;;;;;;;2.80;2.80;;;;;25.10;21.12;101106.16;6110005;23;45217;-90
2022/04/18 15:40:47;;;;;;;;;2.75;2.75;;;;;25.11;20.21;101110.56;6136042;23;45552;-89
2022/04/18 15:43:14;;;;;;;;;5.00;3.40;;;;;24.88;19.85;101107.06;6162186;23;45324;-88
2022/04/18 15:45:40;;;;;;;;;2.40;2.40;;;;;24.65;19.58;101112.56;6135208;23;44867;-87
2022/04/18 15:48:05;;;;;;;;;2.00;2.00;;;;;24.11;22.77;101091.00;6136804;23;45554;-87
2022/04/18 15:50:35;;;;;;;;;4.00;4.00;;;;;23.98;22.41;101094.34;6137471;23;45894;-88
2022/04/18 15:53:04;;;;;;;;;3.60;3.60;;;;;23.56;20.68;101105.59;6136827;23;44841;-90
2022/04/18 15:55:30;;;;;;;;;2.60;2.60;;;;;23.36;20.79;101096.22;6140479;23;44681;-88
2022/04/18 15:58:14;;;;;;;;;4.20;3.00;;;;;23.46;21.41;101094.13;6142423;23;44947;-90
2022/04/18 16:00:59;;;;;;;;;3.40;3.40;;;;;23.36;21.07;101096.22;6139204;23;45151;-89
2022/04/18 16:03:25;;;;;;;;;5.00;5.00;;;;;23.36;22.89;101088.94;6133105;23;44754;-90
2022/04/18 16:05:52;;;;;;;;;3.25;3.25;;;;;23.23;21.43;101092.22;6157958;23;44647;-89
2022/04/18 16:08:18;;;;;;;;;2.60;2.60;;;;;23.41;21.94;101085.69;6188729;22;45170;-88
2022/04/18 16:10:44;;;;;;;;;1.00;1.00;;;;;23.61;20.98;101084.22;6194521;22;46902;-87
2022/04/18 16:13:14;;;;;;;;;6.00;4.00;;;;;23.58;21.23;101090.81;6193490;22;45190;-88
2022/04/18 16:15:56;;;;;;;;;4.40;3.00;;;;;23.62;21.85;101076.91;6226149;22;44643;-88
2022/04/18 16:19:12;;;;;;;;;3.20;3.20;;;;;23.50;21.25;101082.75;6227925;22;44674;-87
2022/04/18 16:21:45;;;;;;;;;3.60;3.20;;;;;23.26;21.60;101083.75;6205001;22;45492;-86
2022/04/18 16:24:33;;;;;;;;;5.60;4.00;;;;;23.11;22.90;101090.91;6229682;22;44646;-86
2022/04/18 16:27:02;;;;;;;;;2.00;2.00;;;;;23.14;23.61;101077.00;6232204;22;44640;-87
2022/04/18 16:32:28;;;;;;;;;3.60;3.60;;;;;22.62;21.02;101079.34;6237396;22;44932;-89
2022/04/18 16:34:55;;;;;;;;;2.00;2.00;;;;;22.86;22.39;101081.16;6178192;22;45225;-86
2022/04/18 16:37:20;;;;;;;;;2.20;2.20;;;;;22.99;22.39;101074.19;6232090;22;44583;-86
2022/04/18 16:39:48;;;;;;;;;3.00;3.00;;;;;23.18;21.89;101072.94;6204572;22;45154;-86
2022/04/18 16:48:14;;;;;;;;;3.80;3.80;;;;;22.63;21.84;101072.91;6232399;22;44753;-86
2022/04/18 16:50:59;;;;;;;;;3.00;3.00;;;;;22.93;22.22;101061.34;6202274;22;44949;-88
2022/04/18 16:53:45;;;;;;;;;5.60;4.80;;;;;23.16;22.08;101061.44;6202022;22;46769;-88
2022/04/18 16:56:19;;;;;;;;;4.20;3.00;;;;;23.44;23.25;101066.34;6197263;22;44776;-87
2022/04/18 16:59:19;;;;;;;;;;;;;;;;;;;;;
2022/04/18 17:02:45;;;;;;;;;3.60;2.00;;;;;23.75;24.93;101056.34;6228223;22;70125;-87
2022/04/18 17:05:38;;;;;;;;;1.60;1.60;;;;;23.95;24.42;101067.53;6226259;22;44898;-86
2022/04/18 17:08:12;;;;;;;;;2.20;1.00;;;;;24.07;24.08;101066.06;6200039;22;44784;-87
2022/04/18 17:11:17;;;;;;;;;;;;;;;;;;;;;
2022/04/18 17:14:01;;;;;;;;;2.00;2.00;;;;;24.22;25.09;101054.41;6228109;22;69334;-88
2022/04/18 17:20:28;;;;;;;;;2.00;2.00;;;;;24.03;24.69;101059.34;6102307;23;45221;-88
2022/04/18 17:23:12;;;;;;;;;2.20;2.20;;;;;23.82;25.83;101056.44;6043097;23;44794;-86
2022/04/18 17:25:38;;;;;;;;;2.60;2.60;;;;;23.69;26.16;101051.66;6041839;23;44803;-88
2022/04/18 17:28:15;;;;;;;;;3.00;3.00;;;;;23.54;26.10;101045.25;6020982;23;45313;-87
2022/04/18 17:30:43;;;;;;;;;3.00;3.00;;;;;23.38;26.54;101050.78;6043615;23;44777;-88
2022/04/18 17:36:06;;;;;;;;;3.00;3.00;;;;;22.86;26.92;101054.91;6045793;23;44782;-87
2022/04/18 17:38:45;;;;;;;;;3.20;3.20;;;;;22.75;26.89;101052.56;6044974;23;45137;-88
2022/04/18 17:44:58;;;;;;;;;4.20;3.00;;;;;22.41;27.48;101052.84;6047420;23;44876;-88
2022/04/18 17:47:58;;;;;;;;;5.00;2.00;;;;;22.21;26.91;101044.25;6026604;23;44946;-86
2022/04/18 17:51:25;;;;;;;;;3.60;3.00;;;;;22.14;27.66;101049.47;6031163;23;46784;-85
2022/04/18 17:57:47;;;;;;;;;;;;;;;;;;;;;
2022/04/18 18:00:19;;;;;;;;;2.00;2.00;;;;;21.80;27.83;101055.88;6004132;23;69168;-87
2022/04/18 18:03:14;;;;;;;;;2.00;2.00;;;;;21.58;27.99;101058.41;6049822;23;45216;-86
2022/04/18 18:06:17;;;;;;;;;2.00;2.00;;;;;21.42;27.44;101067.28;6016624;23;44873;-88
2022/04/18 18:08:54;;;;;;;;;2.60;2.20;;;;;21.25;27.99;101075.34;6051147;23;44863;-86
2022/04/18 18:11:37;;;;;;;;;1.60;1.60;;;;;21.11;28.28;101073.25;6007781;23;44868;-87
2022/04/18 18:14:03;;;;;;;;;1.00;1.00;;;;;20.84;28.97;101070.75;6026826;23;45220;-86
2022/04/18 18:16:44;;;;;;;;;2.75;2.00;;;;;20.66;28.29;101071.69;6050942;23;44767;-87
2022/04/18 18:19:40;;;;;;;;;3.40;1.20;;;;;20.45;27.92;101077.47;6052294;23;44651;-88
2022/04/18 18:22:08;;;;;;;;;2.20;1.00;;;;;20.20;27.94;101081.81;6065364;23;44877;-88
2022/04/18 18:24:35;;;;;;;;;1.40;1.40;;;;;20.06;28.24;101085.06;6053215;23;45138;-87
2022/04/18 18:27:07;;;;;;;;;3.00;3.00;;;;;19.95;29.43;101077.22;6091547;23;45499;-87
2022/04/18 18:29:36;;;;;;;;;1.40;1.40;;;;;19.69;29.99;101077.16;6098023;23;44670;-87
2022/04/18 18:32:11;;;;;;;;;10.00;8.00;;;;;19.49;33.50;101088.03;6186318;22;45185;-89
2022/04/18 18:34:48;;;;;;;;;16.00;13.25;;;;;19.30;35.77;101076.53;6192713;22;47281;-88
2022/04/18 18:37:16;;;;;;;;;4.80;4.80;;;;;19.13;37.32;101079.03;6219364;22;44768;-88
2022/04/18 18:39:56;;;;;;;;;4.00;3.00;;;;;18.95;40.12;101075.41;6194199;22;45208;-87
2022/04/18 18:42:31;;;;;;;;;6.75;6.75;;;;;18.80;41.80;101076.91;6168972;22;44770;-88
2022/04/18 18:45:34;;;;;;;;;4.20;4.20;;;;;18.62;43.68;101080.34;6191451;22;47147;-88
2022/04/18 18:48:18;;;;;;;;;4.60;4.60;;;;;18.44;45.57;101074.03;6223112;22;44937;-88
2022/04/18 18:53:35;;;;;;;;;4.80;4.80;;;;;18.23;48.86;101076.91;6228612;22;44789;-86
2022/04/18 18:56:07;;;;;;;;;4.20;4.00;;;;;18.16;50.00;101087.38;6170953;22;45069;-87
2022/04/18 18:58:43;;;;;;;;;3.20;3.20;;;;;18.04;50.65;101087.69;6220164;22;44802;-87
2022/04/18 19:01:32;;;;;;;;;5.20;5.00;;;;;18.01;51.75;101090.66;6225050;22;44694;-87
2022/04/18 19:04:13;;;;;;;;;;;;;;;;;;;;;
2022/04/18 19:06:39;;;;;;;;;4.40;4.40;;;;;17.92;52.32;101095.03;6228698;22;74510;-89
2022/04/18 19:09:06;;;;;;;;;5.75;5.75;;;;;17.91;53.27;101098.72;6202938;22;44750;-87
2022/04/18 19:11:43;;;;;;;;;3.20;3.20;;;;;17.84;54.06;101095.75;6202383;22;45304;-89
2022/04/18 19:14:09;;;;;;;;;3.40;3.40;;;;;17.84;52.92;101102.94;6231450;22;44925;-86
2022/04/18 19:27:35;;;;;;;;;4.80;4.80;;;;;17.54;55.57;101117.31;6219020;22;45043;-87
2022/04/18 19:30:05;;;;;;;;;2.00;2.00;;;;;17.46;56.07;101113.50;6220034;22;44769;-87